SBI370 URSS-UNNT
Flight info
| Callsign | SBI370 |
|---|---|
| Flight time | N/A |
| Altitude | 33000 |
| Route | IRGID1D IRGID A944 GUBOR G487 ERSAR DCT BEMES DCT ITAKA N154 AKT P574 OGANU N55 ATNON/K0839F350 N55 DAKIN B944 GOLIM GOLIM1K |
| Aircraft | A321/M-SDE3FGHIRWY/LB1 |
Departure
| Time | 2026-05-05 11:27 |
|---|---|
| Airport | Sochi International Airport (URSS) |
Arrival
| Time | N/A |
|---|---|
| Airport | Novosibirsk Tolmachevo Airport (UNNT) |
| Time | Latitude | Longitude | Altitude | Speed | Heading |
|---|---|---|---|---|---|
| 2026-05-05 11:06 | 43.44723 | 39.94109 | 74 ft | 0 kts | 335° |
| 2026-05-05 11:07 | 43.44723 | 39.94110 | 74 ft | 0 kts | 335° |
| 2026-05-05 11:16 | 43.44716 | 39.94114 | 71 ft | 3 kts | 335° |
| 2026-05-05 11:17 | 43.44698 | 39.94126 | 66 ft | 3 kts | 335° |
| 2026-05-05 11:17 | 43.44680 | 39.94137 | 72 ft | 3 kts | 332° |
| 2026-05-05 11:17 | 43.44662 | 39.94151 | 71 ft | 3 kts | 328° |
| 2026-05-05 11:17 | 43.44645 | 39.94166 | 69 ft | 3 kts | 329° |
| 2026-05-05 11:18 | 43.44628 | 39.94178 | 66 ft | 3 kts | 351° |
| 2026-05-05 11:18 | 43.44619 | 39.94182 | 70 ft | 2 kts | 53° |
| 2026-05-05 11:18 | 43.44614 | 39.94172 | 67 ft | 3 kts | 65° |
| 2026-05-05 11:18 | 43.44607 | 39.94151 | 66 ft | 1 kts | 65° |
| 2026-05-05 11:19 | 43.44606 | 39.94149 | 66 ft | 2 kts | 65° |
| 2026-05-05 11:19 | 43.44606 | 39.94148 | 66 ft | 0 kts | 65° |
| 2026-05-05 11:21 | 43.44610 | 39.94158 | 65 ft | 2 kts | 65° |
| 2026-05-05 11:21 | 43.44620 | 39.94188 | 66 ft | 4 kts | 65° |
| 2026-05-05 11:21 | 43.44637 | 39.94237 | 67 ft | 7 kts | 65° |
| 2026-05-05 11:22 | 43.44664 | 39.94318 | 69 ft | 11 kts | 65° |
| 2026-05-05 11:22 | 43.44703 | 39.94434 | 72 ft | 15 kts | 65° |
| 2026-05-05 11:22 | 43.44746 | 39.94563 | 72 ft | 14 kts | 65° |
| 2026-05-05 11:22 | 43.44793 | 39.94699 | 70 ft | 18 kts | 64° |
| 2026-05-05 11:23 | 43.44852 | 39.94873 | 71 ft | 22 kts | 65° |
| 2026-05-05 11:23 | 43.44919 | 39.95069 | 82 ft | 23 kts | 65° |
| 2026-05-05 11:23 | 43.44980 | 39.95236 | 88 ft | 17 kts | 62° |
| 2026-05-05 11:23 | 43.44990 | 39.95319 | 90 ft | 2 kts | 117° |
| 2026-05-05 11:24 | 43.44988 | 39.95321 | 90 ft | 0 kts | 131° |
| 2026-05-05 11:25 | 43.44984 | 39.95328 | 89 ft | 3 kts | 133° |
| 2026-05-05 11:25 | 43.44948 | 39.95357 | 90 ft | 9 kts | 152° |
| 2026-05-05 11:25 | 43.44892 | 39.95339 | 90 ft | 10 kts | 238° |
| 2026-05-05 11:25 | 43.44880 | 39.95310 | 86 ft | 0 kts | 243° |
| 2026-05-05 11:26 | 43.44863 | 39.95264 | 84 ft | 25 kts | 245° |
| 2026-05-05 11:26 | 43.44681 | 39.94723 | 67 ft | 96 kts | 244° |
| 2026-05-05 11:26 | 43.44313 | 39.93649 | 60 ft | 151 kts | 245° |
| 2026-05-05 11:26 | 43.43837 | 39.92216 | 411 ft | 165 kts | 247° |
| 2026-05-05 11:27 | 43.43492 | 39.90758 | 1166 ft | 162 kts | 256° |
| 2026-05-05 11:27 | 43.43220 | 39.89234 | 1542 ft | 171 kts | 258° |
| 2026-05-05 11:27 | 43.42946 | 39.87548 | 1718 ft | 190 kts | 258° |
| 2026-05-05 11:27 | 43.42649 | 39.85701 | 1854 ft | 206 kts | 258° |
| 2026-05-05 11:28 | 43.42320 | 39.83680 | 1977 ft | 227 kts | 258° |
| 2026-05-05 11:28 | 43.41956 | 39.81461 | 2197 ft | 247 kts | 258° |
| 2026-05-05 11:28 | 43.41566 | 39.79113 | 2775 ft | 255 kts | 258° |
| 2026-05-05 11:28 | 43.41163 | 39.76718 | 3378 ft | 260 kts | 258° |
| 2026-05-05 11:29 | 43.40751 | 39.74277 | 4021 ft | 263 kts | 258° |
| 2026-05-05 11:29 | 43.40333 | 39.71815 | 4680 ft | 266 kts | 258° |
| 2026-05-05 11:29 | 43.39908 | 39.69318 | 5326 ft | 269 kts | 258° |
| 2026-05-05 11:29 | 43.39481 | 39.66803 | 5984 ft | 272 kts | 258° |
| 2026-05-05 11:30 | 43.39050 | 39.64262 | 6614 ft | 274 kts | 257° |
| 2026-05-05 11:30 | 43.38692 | 39.61679 | 7220 ft | 276 kts | 265° |
| 2026-05-05 11:30 | 43.38513 | 39.59045 | 7808 ft | 279 kts | 265° |
| 2026-05-05 11:30 | 43.38330 | 39.56379 | 7958 ft | 280 kts | 265° |
| 2026-05-05 11:31 | 43.38149 | 39.53718 | 7984 ft | 279 kts | 264° |
| 2026-05-05 11:31 | 43.37967 | 39.51061 | 7989 ft | 279 kts | 265° |
| 2026-05-05 11:31 | 43.38148 | 39.48427 | 7989 ft | 278 kts | 291° |
| 2026-05-05 11:31 | 43.39215 | 39.46238 | 8005 ft | 280 kts | 321° |
| 2026-05-05 11:32 | 43.40962 | 39.45055 | 8513 ft | 284 kts | 347° |
| 2026-05-05 11:32 | 43.42891 | 39.44564 | 9101 ft | 288 kts | 350° |
| 2026-05-05 11:32 | 43.44884 | 39.44113 | 9669 ft | 291 kts | 351° |
| 2026-05-05 11:32 | 43.46898 | 39.43674 | 10180 ft | 297 kts | 351° |
| 2026-05-05 11:33 | 43.49026 | 39.43414 | 10306 ft | 316 kts | 360° |
| 2026-05-05 11:33 | 43.51275 | 39.43648 | 10436 ft | 334 kts | 9° |
| 2026-05-05 11:33 | 43.53586 | 39.44446 | 10562 ft | 351 kts | 19° |
| 2026-05-05 11:33 | 43.55953 | 39.45576 | 10705 ft | 367 kts | 19° |
| 2026-05-05 11:34 | 43.58388 | 39.46733 | 11104 ft | 373 kts | 19° |
| 2026-05-05 11:34 | 43.60858 | 39.47901 | 11628 ft | 377 kts | 19° |
| 2026-05-05 11:34 | 43.63348 | 39.49075 | 12132 ft | 380 kts | 19° |
| 2026-05-05 11:34 | 43.65861 | 39.50260 | 12667 ft | 383 kts | 20° |
| 2026-05-05 11:35 | 43.68283 | 39.51816 | 13189 ft | 385 kts | 33° |
| 2026-05-05 11:35 | 43.70400 | 39.54086 | 13699 ft | 386 kts | 46° |
| 2026-05-05 11:35 | 43.72095 | 39.56966 | 14157 ft | 387 kts | 59° |
| 2026-05-05 11:35 | 43.73267 | 39.60257 | 14611 ft | 387 kts | 72° |
| 2026-05-05 11:36 | 43.73939 | 39.63865 | 15090 ft | 388 kts | 79° |
| 2026-05-05 11:36 | 43.74490 | 39.67525 | 15551 ft | 390 kts | 79° |
| 2026-05-05 11:36 | 43.75046 | 39.71215 | 15998 ft | 393 kts | 79° |
| 2026-05-05 11:36 | 43.75603 | 39.74919 | 16474 ft | 395 kts | 79° |
| 2026-05-05 11:37 | 43.76162 | 39.78648 | 16907 ft | 397 kts | 80° |
| 2026-05-05 11:37 | 43.76727 | 39.82410 | 17357 ft | 400 kts | 79° |
| 2026-05-05 11:37 | 43.77291 | 39.86178 | 17786 ft | 401 kts | 80° |
| 2026-05-05 11:37 | 43.77855 | 39.89977 | 18192 ft | 404 kts | 80° |
| 2026-05-05 11:38 | 43.78224 | 39.92502 | 18435 ft | 405 kts | 80° |
| 2026-05-05 11:38 | 43.78753 | 39.96343 | 18800 ft | 407 kts | 81° |
| 2026-05-05 11:38 | 43.79257 | 40.00210 | 19180 ft | 408 kts | 82° |
| 2026-05-05 11:38 | 43.79748 | 40.04085 | 19539 ft | 410 kts | 82° |
| 2026-05-05 11:39 | 43.80237 | 40.07982 | 19916 ft | 412 kts | 82° |
| 2026-05-05 11:39 | 43.80729 | 40.11897 | 20280 ft | 413 kts | 82° |
| 2026-05-05 11:39 | 43.81224 | 40.15829 | 20664 ft | 415 kts | 82° |
| 2026-05-05 11:39 | 43.81725 | 40.19777 | 21046 ft | 417 kts | 82° |
| 2026-05-05 11:40 | 43.82222 | 40.23689 | 21431 ft | 418 kts | 82° |
| 2026-05-05 11:40 | 43.82727 | 40.27666 | 21830 ft | 420 kts | 82° |
| 2026-05-05 11:40 | 43.83232 | 40.31663 | 22218 ft | 422 kts | 82° |
| 2026-05-05 11:40 | 43.83738 | 40.35671 | 22590 ft | 423 kts | 82° |
| 2026-05-05 11:41 | 43.84247 | 40.39689 | 22944 ft | 424 kts | 82° |
| 2026-05-05 11:41 | 43.84758 | 40.43724 | 23314 ft | 426 kts | 82° |
| 2026-05-05 11:41 | 43.85266 | 40.47783 | 23650 ft | 428 kts | 82° |
| 2026-05-05 11:41 | 43.85771 | 40.51856 | 23962 ft | 429 kts | 82° |
| 2026-05-05 11:42 | 43.86278 | 40.55945 | 24255 ft | 431 kts | 82° |
| 2026-05-05 11:42 | 43.86786 | 40.60038 | 24545 ft | 432 kts | 82° |
| 2026-05-05 11:42 | 43.87295 | 40.64147 | 24830 ft | 433 kts | 82° |
| 2026-05-05 11:42 | 43.87806 | 40.68257 | 25126 ft | 434 kts | 81° |
| 2026-05-05 11:43 | 43.88586 | 40.72312 | 25408 ft | 437 kts | 72° |
| 2026-05-05 11:43 | 43.89758 | 40.76215 | 25686 ft | 439 kts | 69° |
| 2026-05-05 11:43 | 43.90974 | 40.80098 | 25981 ft | 440 kts | 69° |
| 2026-05-05 11:43 | 43.92193 | 40.84000 | 26267 ft | 441 kts | 69° |
| 2026-05-05 11:44 | 43.93410 | 40.87913 | 26554 ft | 442 kts | 69° |
| 2026-05-05 11:44 | 43.94626 | 40.91837 | 26852 ft | 443 kts | 69° |
| 2026-05-05 11:44 | 43.95841 | 40.95763 | 27206 ft | 442 kts | 69° |
| 2026-05-05 11:44 | 43.97047 | 40.99670 | 27654 ft | 439 kts | 70° |
| 2026-05-05 11:45 | 43.98246 | 41.03566 | 28084 ft | 437 kts | 70° |
| 2026-05-05 11:45 | 43.99421 | 41.07388 | 28491 ft | 434 kts | 70° |
| 2026-05-05 11:45 | 44.00619 | 41.11274 | 28901 ft | 432 kts | 70° |
| 2026-05-05 11:45 | 44.01787 | 41.15062 | 29301 ft | 430 kts | 70° |
| 2026-05-05 11:46 | 44.02960 | 41.18870 | 29725 ft | 427 kts | 70° |
| 2026-05-05 11:46 | 44.04124 | 41.22659 | 30107 ft | 425 kts | 70° |
| 2026-05-05 11:46 | 44.05280 | 41.26438 | 30369 ft | 424 kts | 70° |
| 2026-05-05 11:46 | 44.06432 | 41.30218 | 30549 ft | 426 kts | 70° |
| 2026-05-05 11:47 | 44.07587 | 41.34012 | 30732 ft | 427 kts | 70° |
| 2026-05-05 11:47 | 44.08749 | 41.37841 | 30910 ft | 428 kts | 70° |
| 2026-05-05 11:47 | 44.09906 | 41.41661 | 31083 ft | 430 kts | 70° |
| 2026-05-05 11:47 | 44.10955 | 41.45555 | 31243 ft | 429 kts | 77° |
| 2026-05-05 11:48 | 44.11677 | 41.53732 | 31553 ft | 426 kts | 94° |
| 2026-05-05 11:48 | 44.11563 | 41.57858 | 31694 ft | 428 kts | 94° |
| 2026-05-05 11:48 | 44.11449 | 41.62008 | 31850 ft | 430 kts | 94° |
| 2026-05-05 11:49 | 44.11338 | 41.66166 | 32026 ft | 431 kts | 94° |
| 2026-05-05 11:49 | 44.11225 | 41.70335 | 32165 ft | 432 kts | 94° |
| 2026-05-05 11:49 | 44.11110 | 41.74551 | 32318 ft | 434 kts | 94° |
| 2026-05-05 11:49 | 44.10999 | 41.78702 | 32471 ft | 435 kts | 94° |
| 2026-05-05 11:50 | 44.10885 | 41.82926 | 32626 ft | 437 kts | 94° |
| 2026-05-05 11:50 | 44.10768 | 41.87148 | 32785 ft | 438 kts | 94° |
| 2026-05-05 11:50 | 44.10648 | 41.91387 | 32927 ft | 439 kts | 94° |
| 2026-05-05 11:50 | 44.10524 | 41.95648 | 32959 ft | 442 kts | 94° |
| 2026-05-05 11:51 | 44.10270 | 42.04215 | 32958 ft | 443 kts | 94° |
| 2026-05-05 11:51 | 44.10012 | 42.12780 | 32957 ft | 444 kts | 94° |
| 2026-05-05 11:52 | 44.09751 | 42.21355 | 32961 ft | 444 kts | 94° |
| 2026-05-05 11:52 | 44.09478 | 42.29956 | 32962 ft | 445 kts | 94° |
| 2026-05-05 11:53 | 44.09195 | 42.38562 | 32959 ft | 445 kts | 94° |
| 2026-05-05 11:53 | 44.08906 | 42.47154 | 32956 ft | 445 kts | 94° |
| 2026-05-05 11:54 | 44.08615 | 42.55750 | 32955 ft | 445 kts | 95° |
| 2026-05-05 11:54 | 44.08321 | 42.64206 | 32955 ft | 445 kts | 95° |
| 2026-05-05 11:55 | 44.08019 | 42.72806 | 32963 ft | 446 kts | 95° |
| 2026-05-05 11:55 | 44.07705 | 42.81422 | 32967 ft | 446 kts | 95° |
| 2026-05-05 11:56 | 44.07386 | 42.90037 | 32966 ft | 446 kts | 95° |
| 2026-05-05 11:56 | 44.07059 | 42.98637 | 32976 ft | 447 kts | 95° |
| 2026-05-05 11:57 | 44.06731 | 43.07274 | 32975 ft | 447 kts | 95° |
| 2026-05-05 11:57 | 44.06396 | 43.15910 | 32971 ft | 447 kts | 95° |
| 2026-05-05 11:58 | 44.06051 | 43.24552 | 32975 ft | 448 kts | 95° |
| 2026-05-05 11:58 | 44.05698 | 43.33209 | 32973 ft | 449 kts | 95° |
| 2026-05-05 11:59 | 44.05337 | 43.41875 | 32970 ft | 449 kts | 95° |
| 2026-05-05 11:59 | 44.04966 | 43.50549 | 32966 ft | 450 kts | 95° |
| 2026-05-05 12:00 | 44.04591 | 43.59233 | 32963 ft | 450 kts | 95° |
| 2026-05-05 12:00 | 44.04217 | 43.67930 | 32963 ft | 451 kts | 95° |
| 2026-05-05 12:01 | 44.03833 | 43.76629 | 32967 ft | 451 kts | 95° |
| 2026-05-05 12:01 | 44.03433 | 43.85343 | 32959 ft | 452 kts | 95° |
| 2026-05-05 12:02 | 44.03028 | 43.94014 | 32959 ft | 453 kts | 95° |
| 2026-05-05 12:02 | 44.02619 | 44.02745 | 32967 ft | 453 kts | 95° |
| 2026-05-05 12:03 | 44.02203 | 44.11505 | 32966 ft | 454 kts | 96° |
| 2026-05-05 12:03 | 44.01777 | 44.20256 | 32962 ft | 455 kts | 96° |
| 2026-05-05 12:04 | 44.01346 | 44.29031 | 32963 ft | 455 kts | 96° |
| 2026-05-05 12:04 | 44.00912 | 44.37755 | 32965 ft | 456 kts | 96° |
| 2026-05-05 12:05 | 44.00466 | 44.46560 | 32970 ft | 457 kts | 96° |
| 2026-05-05 12:05 | 44.00013 | 44.55364 | 32961 ft | 457 kts | 96° |
| 2026-05-05 12:06 | 43.99555 | 44.64186 | 32955 ft | 458 kts | 96° |
| 2026-05-05 12:06 | 43.99084 | 44.73014 | 32954 ft | 459 kts | 96° |
| 2026-05-05 12:07 | 43.98610 | 44.81847 | 32953 ft | 459 kts | 96° |
| 2026-05-05 12:07 | 43.98125 | 44.90697 | 32943 ft | 460 kts | 96° |
| 2026-05-05 12:08 | 43.97633 | 44.99568 | 32942 ft | 461 kts | 96° |
| 2026-05-05 12:08 | 43.97144 | 45.08452 | 32936 ft | 461 kts | 96° |
| 2026-05-05 12:09 | 43.96640 | 45.17342 | 32934 ft | 462 kts | 97° |
| 2026-05-05 12:09 | 43.96119 | 45.26175 | 32928 ft | 462 kts | 97° |
| 2026-05-05 12:10 | 43.95597 | 45.35084 | 32926 ft | 463 kts | 97° |
| 2026-05-05 12:10 | 43.95074 | 45.43990 | 32926 ft | 464 kts | 97° |
| 2026-05-05 12:11 | 43.94542 | 45.52917 | 32923 ft | 464 kts | 97° |
| 2026-05-05 12:11 | 43.93990 | 45.61848 | 32920 ft | 465 kts | 97° |
| 2026-05-05 12:12 | 43.93438 | 45.70792 | 32919 ft | 466 kts | 97° |
| 2026-05-05 12:12 | 43.92877 | 45.79750 | 32916 ft | 466 kts | 97° |
| 2026-05-05 12:13 | 43.92318 | 45.88713 | 32918 ft | 467 kts | 96° |
| 2026-05-05 12:13 | 43.92267 | 45.97749 | 32915 ft | 469 kts | 92° |
| 2026-05-05 12:14 | 43.92278 | 46.06809 | 32912 ft | 470 kts | 92° |
| 2026-05-05 12:14 | 43.92281 | 46.15884 | 32911 ft | 471 kts | 92° |
| 2026-05-05 12:15 | 43.92273 | 46.24968 | 32908 ft | 471 kts | 92° |
| 2026-05-05 12:15 | 43.92262 | 46.34063 | 32909 ft | 472 kts | 92° |
| 2026-05-05 12:16 | 43.92242 | 46.43163 | 32910 ft | 472 kts | 92° |
| 2026-05-05 12:16 | 43.92212 | 46.52271 | 32907 ft | 472 kts | 93° |
| 2026-05-05 12:17 | 43.92174 | 46.61392 | 32910 ft | 473 kts | 93° |
| 2026-05-05 12:17 | 43.92137 | 46.70515 | 32908 ft | 473 kts | 93° |
| 2026-05-05 12:18 | 43.92088 | 46.79651 | 32908 ft | 473 kts | 93° |
| 2026-05-05 12:18 | 43.92032 | 46.88773 | 32907 ft | 474 kts | 93° |
| 2026-05-05 12:19 | 43.91972 | 46.97925 | 32906 ft | 474 kts | 93° |
| 2026-05-05 12:19 | 43.91900 | 47.07068 | 32909 ft | 475 kts | 94° |
| 2026-05-05 12:20 | 43.91833 | 47.14681 | 32910 ft | 475 kts | 94° |
| 2026-05-05 12:20 | 43.91743 | 47.23860 | 32905 ft | 476 kts | 94° |
| 2026-05-05 12:21 | 43.91651 | 47.33037 | 32907 ft | 476 kts | 94° |
| 2026-05-05 12:21 | 43.91553 | 47.42170 | 32911 ft | 477 kts | 94° |
| 2026-05-05 12:22 | 43.91448 | 47.51383 | 32909 ft | 478 kts | 94° |
| 2026-05-05 12:22 | 43.91336 | 47.60606 | 32919 ft | 479 kts | 94° |
| 2026-05-05 12:23 | 43.91211 | 47.69839 | 32921 ft | 480 kts | 95° |
| 2026-05-05 12:23 | 43.91084 | 47.79097 | 32910 ft | 480 kts | 95° |
| 2026-05-05 12:24 | 43.90949 | 47.88371 | 32907 ft | 481 kts | 95° |
| 2026-05-05 12:24 | 43.90805 | 47.97648 | 32905 ft | 482 kts | 95° |
| 2026-05-05 12:25 | 43.90649 | 48.06949 | 32903 ft | 483 kts | 95° |
| 2026-05-05 12:25 | 43.90483 | 48.16207 | 32904 ft | 484 kts | 95° |
| 2026-05-05 12:26 | 43.90316 | 48.25550 | 32905 ft | 485 kts | 96° |
| 2026-05-05 12:26 | 43.90141 | 48.34913 | 32903 ft | 486 kts | 96° |
| 2026-05-05 12:27 | 43.89960 | 48.44289 | 32903 ft | 487 kts | 96° |
| 2026-05-05 12:27 | 43.89762 | 48.53675 | 32898 ft | 488 kts | 96° |
| 2026-05-05 12:28 | 43.89561 | 48.63083 | 32892 ft | 489 kts | 96° |
| 2026-05-05 12:28 | 43.89362 | 48.72517 | 32891 ft | 490 kts | 96° |
| 2026-05-05 12:29 | 43.89146 | 48.81968 | 32887 ft | 491 kts | 97° |
| 2026-05-05 12:29 | 43.88907 | 48.91435 | 32884 ft | 492 kts | 97° |
| 2026-05-05 12:30 | 43.88671 | 49.00936 | 32879 ft | 493 kts | 97° |
| 2026-05-05 12:30 | 43.88434 | 49.10450 | 32874 ft | 494 kts | 97° |
| 2026-05-05 12:31 | 43.88180 | 49.19984 | 32877 ft | 496 kts | 98° |
| 2026-05-05 12:31 | 43.87924 | 49.29533 | 32876 ft | 497 kts | 98° |
| 2026-05-05 12:32 | 43.87658 | 49.39114 | 32876 ft | 497 kts | 98° |
| 2026-05-05 12:32 | 43.87378 | 49.48700 | 32869 ft | 498 kts | 98° |
| 2026-05-05 12:33 | 43.87240 | 49.58330 | 32865 ft | 502 kts | 95° |
| 2026-05-05 12:33 | 43.87361 | 49.68024 | 32864 ft | 503 kts | 94° |
| 2026-05-05 12:34 | 43.87501 | 49.77735 | 32862 ft | 504 kts | 95° |
| 2026-05-05 12:34 | 43.87550 | 49.87447 | 32856 ft | 503 kts | 96° |
| 2026-05-05 12:35 | 43.87540 | 49.97148 | 32852 ft | 504 kts | 96° |
| 2026-05-05 12:35 | 43.87537 | 50.06870 | 32853 ft | 504 kts | 96° |
| 2026-05-05 12:36 | 43.87553 | 50.16589 | 32852 ft | 504 kts | 96° |
| 2026-05-05 12:36 | 43.87561 | 50.26270 | 32852 ft | 504 kts | 96° |
| 2026-05-05 12:37 | 43.87549 | 50.35986 | 32850 ft | 504 kts | 96° |
| 2026-05-05 12:37 | 43.87533 | 50.45695 | 32853 ft | 504 kts | 96° |
| 2026-05-05 12:38 | 43.87511 | 50.55388 | 32849 ft | 503 kts | 97° |
| 2026-05-05 12:38 | 43.87479 | 50.65078 | 32854 ft | 502 kts | 97° |
| 2026-05-05 12:39 | 43.87436 | 50.74758 | 32856 ft | 502 kts | 97° |
| 2026-05-05 12:39 | 43.87386 | 50.84362 | 32861 ft | 501 kts | 97° |
| 2026-05-05 12:40 | 43.87325 | 50.94009 | 32848 ft | 500 kts | 97° |
| 2026-05-05 12:40 | 43.87792 | 51.03674 | 32863 ft | 511 kts | 83° |
| 2026-05-05 12:41 | 43.88796 | 51.08433 | 32858 ft | 517 kts | 72° |
| 2026-05-05 12:41 | 43.90339 | 51.12950 | 32856 ft | 521 kts | 62° |
| 2026-05-05 12:41 | 43.94304 | 51.21407 | 32852 ft | 523 kts | 59° |
| 2026-05-05 12:42 | 43.98275 | 51.29850 | 32848 ft | 523 kts | 59° |
| 2026-05-05 12:42 | 44.02238 | 51.38329 | 32846 ft | 523 kts | 59° |
| 2026-05-05 12:43 | 44.06196 | 51.46808 | 32844 ft | 523 kts | 59° |
| 2026-05-05 12:43 | 44.10150 | 51.55296 | 32844 ft | 523 kts | 59° |
| 2026-05-05 12:44 | 44.14100 | 51.63792 | 32843 ft | 523 kts | 60° |
| 2026-05-05 12:44 | 44.18044 | 51.72302 | 32846 ft | 522 kts | 60° |
| 2026-05-05 12:45 | 44.21973 | 51.80828 | 32844 ft | 522 kts | 60° |
| 2026-05-05 12:45 | 44.25875 | 51.89305 | 32848 ft | 522 kts | 60° |
| 2026-05-05 12:46 | 44.29783 | 51.97833 | 32841 ft | 522 kts | 60° |
| 2026-05-05 12:46 | 44.33696 | 52.06399 | 32841 ft | 522 kts | 60° |
| 2026-05-05 12:47 | 44.37590 | 52.14936 | 32835 ft | 521 kts | 60° |
| 2026-05-05 12:47 | 44.41576 | 52.23409 | 32833 ft | 521 kts | 58° |
| 2026-05-05 12:48 | 44.45689 | 52.31771 | 32834 ft | 521 kts | 58° |
| 2026-05-05 12:48 | 44.49785 | 52.40141 | 32834 ft | 521 kts | 58° |
| 2026-05-05 12:49 | 44.53825 | 52.48565 | 32833 ft | 520 kts | 59° |
| 2026-05-05 12:49 | 44.57836 | 52.56997 | 32830 ft | 520 kts | 58° |
| 2026-05-05 12:50 | 44.61857 | 52.65436 | 32830 ft | 520 kts | 58° |
| 2026-05-05 12:50 | 44.65874 | 52.73876 | 32825 ft | 519 kts | 58° |
| 2026-05-05 12:51 | 44.69881 | 52.82310 | 32826 ft | 519 kts | 59° |
| 2026-05-05 12:51 | 44.73851 | 52.90705 | 32825 ft | 518 kts | 59° |
| 2026-05-05 12:52 | 44.77835 | 52.99157 | 32835 ft | 517 kts | 59° |
| 2026-05-05 12:52 | 44.81812 | 53.07602 | 32825 ft | 517 kts | 59° |
| 2026-05-05 12:53 | 44.85775 | 53.16070 | 32819 ft | 517 kts | 59° |
| 2026-05-05 12:53 | 44.89723 | 53.24536 | 32825 ft | 516 kts | 59° |
| 2026-05-05 12:54 | 44.95640 | 53.37248 | 32820 ft | 516 kts | 59° |
| 2026-05-05 12:55 | 44.99567 | 53.45734 | 32822 ft | 516 kts | 59° |
| 2026-05-05 12:55 | 45.03461 | 53.54167 | 32825 ft | 515 kts | 59° |
| 2026-05-05 12:56 | 45.07388 | 53.62682 | 32825 ft | 515 kts | 59° |
| 2026-05-05 12:56 | 45.11295 | 53.71190 | 32827 ft | 515 kts | 59° |
| 2026-05-05 12:57 | 45.15184 | 53.79691 | 32826 ft | 514 kts | 59° |
| 2026-05-05 12:57 | 45.19070 | 53.88194 | 32832 ft | 514 kts | 59° |
| 2026-05-05 12:58 | 45.22950 | 53.96717 | 32838 ft | 513 kts | 59° |
| 2026-05-05 12:58 | 45.26818 | 54.05231 | 32832 ft | 513 kts | 59° |
| 2026-05-05 12:59 | 45.30693 | 54.13742 | 32831 ft | 512 kts | 59° |
| 2026-05-05 12:59 | 45.34543 | 54.22258 | 32835 ft | 512 kts | 59° |
| 2026-05-05 13:00 | 45.40275 | 54.34974 | 32834 ft | 511 kts | 59° |
| 2026-05-05 13:01 | 45.47928 | 54.52043 | 32821 ft | 511 kts | 59° |
| 2026-05-05 13:01 | 45.51741 | 54.60597 | 32834 ft | 511 kts | 59° |
| 2026-05-05 13:02 | 45.54903 | 54.67697 | 32827 ft | 510 kts | 59° |
| 2026-05-05 13:02 | 45.58696 | 54.76260 | 32824 ft | 510 kts | 59° |
| 2026-05-05 13:03 | 45.63095 | 54.86222 | 32823 ft | 510 kts | 59° |
| 2026-05-05 13:03 | 45.66869 | 54.94803 | 32817 ft | 510 kts | 59° |
| 2026-05-05 13:04 | 45.70027 | 55.02005 | 32822 ft | 510 kts | 59° |
| 2026-05-05 13:04 | 45.73788 | 55.10599 | 32823 ft | 510 kts | 59° |
| 2026-05-05 13:05 | 45.77528 | 55.19150 | 32821 ft | 510 kts | 59° |
| 2026-05-05 13:05 | 45.81273 | 55.27764 | 32826 ft | 509 kts | 59° |
| 2026-05-05 13:06 | 45.85010 | 55.36392 | 32824 ft | 509 kts | 59° |
| 2026-05-05 13:06 | 45.88740 | 55.45023 | 32822 ft | 509 kts | 59° |
| 2026-05-05 13:07 | 45.92465 | 55.53675 | 32818 ft | 509 kts | 59° |
| 2026-05-05 13:07 | 45.96185 | 55.62335 | 32816 ft | 509 kts | 59° |
| 2026-05-05 13:08 | 45.99900 | 55.71001 | 32818 ft | 509 kts | 59° |
| 2026-05-05 13:08 | 46.03604 | 55.79683 | 32818 ft | 508 kts | 59° |
| 2026-05-05 13:09 | 46.07295 | 55.88365 | 32817 ft | 508 kts | 59° |
| 2026-05-05 13:09 | 46.10977 | 55.97041 | 32816 ft | 507 kts | 59° |
| 2026-05-05 13:10 | 46.14630 | 56.05676 | 32816 ft | 507 kts | 59° |
| 2026-05-05 13:10 | 46.18297 | 56.14365 | 32822 ft | 507 kts | 59° |
| 2026-05-05 13:11 | 46.21959 | 56.23070 | 32817 ft | 507 kts | 59° |
| 2026-05-05 13:11 | 46.25608 | 56.31774 | 32815 ft | 506 kts | 59° |
| 2026-05-05 13:12 | 46.29243 | 56.40482 | 32811 ft | 505 kts | 59° |
| 2026-05-05 13:12 | 46.32871 | 56.49198 | 32814 ft | 505 kts | 59° |
| 2026-05-05 13:13 | 46.36485 | 56.57908 | 32814 ft | 504 kts | 59° |
| 2026-05-05 13:13 | 46.40088 | 56.66633 | 32810 ft | 504 kts | 59° |
| 2026-05-05 13:14 | 46.43684 | 56.75359 | 32809 ft | 504 kts | 59° |
| 2026-05-05 13:14 | 46.47291 | 56.84067 | 32808 ft | 503 kts | 56° |
| 2026-05-05 13:15 | 46.51750 | 56.91841 | 32813 ft | 501 kts | 45° |
| 2026-05-05 13:15 | 46.56553 | 56.99177 | 32810 ft | 501 kts | 45° |
| 2026-05-05 13:16 | 46.61314 | 57.06492 | 32815 ft | 501 kts | 45° |
| 2026-05-05 13:16 | 46.66093 | 57.13865 | 32808 ft | 500 kts | 45° |
| 2026-05-05 13:17 | 46.70867 | 57.21247 | 32809 ft | 500 kts | 45° |
| 2026-05-05 13:17 | 46.75626 | 57.28655 | 32813 ft | 499 kts | 45° |
| 2026-05-05 13:18 | 46.80377 | 57.36050 | 32813 ft | 499 kts | 45° |
| 2026-05-05 13:18 | 46.85092 | 57.43407 | 32815 ft | 498 kts | 45° |
| 2026-05-05 13:19 | 46.89852 | 57.50853 | 32816 ft | 498 kts | 45° |
| 2026-05-05 13:19 | 46.94555 | 57.58228 | 32816 ft | 498 kts | 45° |
| 2026-05-05 13:20 | 46.99264 | 57.65659 | 32818 ft | 497 kts | 45° |
| 2026-05-05 13:20 | 47.03965 | 57.73098 | 32815 ft | 497 kts | 45° |
| 2026-05-05 13:21 | 47.08667 | 57.80520 | 32820 ft | 497 kts | 45° |
| 2026-05-05 13:21 | 47.13375 | 57.87969 | 32816 ft | 496 kts | 45° |
| 2026-05-05 13:22 | 47.18051 | 57.95414 | 32817 ft | 496 kts | 45° |
| 2026-05-05 13:22 | 47.22718 | 58.02871 | 32824 ft | 495 kts | 45° |
| 2026-05-05 13:23 | 47.27377 | 58.10334 | 32830 ft | 494 kts | 45° |
| 2026-05-05 13:23 | 47.32017 | 58.17799 | 32826 ft | 493 kts | 46° |
| 2026-05-05 13:24 | 47.36595 | 58.25324 | 32829 ft | 493 kts | 46° |
| 2026-05-05 13:24 | 47.41160 | 58.32903 | 32834 ft | 493 kts | 46° |
| 2026-05-05 13:25 | 47.45687 | 58.40417 | 32839 ft | 492 kts | 46° |
| 2026-05-05 13:25 | 47.50252 | 58.47983 | 32843 ft | 492 kts | 46° |
| 2026-05-05 13:26 | 47.54801 | 58.55552 | 32840 ft | 492 kts | 46° |
| 2026-05-05 13:26 | 47.59341 | 58.63148 | 32837 ft | 492 kts | 46° |
| 2026-05-05 13:27 | 47.63883 | 58.70756 | 32838 ft | 492 kts | 46° |
| 2026-05-05 13:27 | 47.68426 | 58.78369 | 32836 ft | 492 kts | 46° |
| 2026-05-05 13:28 | 47.72954 | 58.85995 | 32843 ft | 492 kts | 46° |
| 2026-05-05 13:28 | 47.77478 | 58.93641 | 32845 ft | 492 kts | 46° |
| 2026-05-05 13:29 | 47.82002 | 59.01307 | 32843 ft | 492 kts | 46° |
| 2026-05-05 13:29 | 47.86515 | 59.08970 | 32852 ft | 492 kts | 46° |
| 2026-05-05 13:30 | 47.90989 | 59.16590 | 32856 ft | 491 kts | 47° |
| 2026-05-05 13:30 | 47.95504 | 59.24322 | 32844 ft | 491 kts | 47° |
| 2026-05-05 13:31 | 47.99932 | 59.31926 | 32853 ft | 491 kts | 47° |
| 2026-05-05 13:31 | 48.04410 | 59.39608 | 32859 ft | 490 kts | 47° |
| 2026-05-05 13:32 | 48.08886 | 59.47293 | 32864 ft | 490 kts | 47° |
| 2026-05-05 13:32 | 48.13347 | 59.55008 | 32864 ft | 490 kts | 47° |
| 2026-05-05 13:33 | 48.17804 | 59.62741 | 32871 ft | 490 kts | 47° |
| 2026-05-05 13:33 | 48.22255 | 59.70482 | 32869 ft | 489 kts | 47° |
| 2026-05-05 13:34 | 48.26696 | 59.78222 | 32866 ft | 489 kts | 47° |
| 2026-05-05 13:34 | 48.31125 | 59.85969 | 32875 ft | 489 kts | 47° |
| 2026-05-05 13:35 | 48.35549 | 59.93735 | 32873 ft | 488 kts | 47° |
| 2026-05-05 13:35 | 48.39961 | 60.01490 | 32887 ft | 488 kts | 47° |
| 2026-05-05 13:36 | 48.44370 | 60.09260 | 32875 ft | 487 kts | 47° |
| 2026-05-05 13:36 | 48.48774 | 60.17039 | 32879 ft | 487 kts | 48° |
| 2026-05-05 13:37 | 48.53158 | 60.24833 | 32881 ft | 487 kts | 48° |
| 2026-05-05 13:37 | 48.57522 | 60.32591 | 32886 ft | 487 kts | 48° |
| 2026-05-05 13:38 | 48.61932 | 60.40457 | 32882 ft | 487 kts | 48° |
| 2026-05-05 13:38 | 48.66275 | 60.48240 | 32891 ft | 487 kts | 48° |
| 2026-05-05 13:39 | 48.70645 | 60.56085 | 32893 ft | 487 kts | 48° |
| 2026-05-05 13:39 | 48.75010 | 60.63938 | 32894 ft | 487 kts | 49° |
| 2026-05-05 13:40 | 48.79358 | 60.71808 | 32901 ft | 486 kts | 49° |
| 2026-05-05 13:40 | 48.83703 | 60.79668 | 32905 ft | 486 kts | 49° |
| 2026-05-05 13:41 | 48.88056 | 60.87549 | 32906 ft | 486 kts | 49° |
| 2026-05-05 13:41 | 48.92388 | 60.95447 | 32912 ft | 486 kts | 49° |
| 2026-05-05 13:42 | 48.96710 | 61.03352 | 32910 ft | 486 kts | 49° |
| 2026-05-05 13:42 | 49.01005 | 61.11220 | 32910 ft | 485 kts | 49° |
| 2026-05-05 13:43 | 49.05310 | 61.19148 | 32909 ft | 485 kts | 49° |
| 2026-05-05 13:43 | 49.09605 | 61.27079 | 32909 ft | 485 kts | 49° |
| 2026-05-05 13:44 | 49.13910 | 61.35041 | 32910 ft | 485 kts | 49° |
| 2026-05-05 13:44 | 49.17485 | 61.41660 | 32914 ft | 485 kts | 49° |
| 2026-05-05 13:45 | 49.22473 | 61.50916 | 32918 ft | 485 kts | 50° |
| 2026-05-05 13:45 | 49.26757 | 61.58908 | 32915 ft | 485 kts | 50° |
| 2026-05-05 13:46 | 49.30323 | 61.65588 | 32920 ft | 486 kts | 50° |
| 2026-05-05 13:46 | 49.34593 | 61.73616 | 32923 ft | 486 kts | 50° |
| 2026-05-05 13:47 | 49.38862 | 61.81656 | 32924 ft | 486 kts | 50° |
| 2026-05-05 13:47 | 49.43133 | 61.89716 | 32922 ft | 486 kts | 50° |
| 2026-05-05 13:48 | 49.47392 | 61.97775 | 32927 ft | 486 kts | 50° |
| 2026-05-05 13:48 | 49.51654 | 62.05861 | 32930 ft | 486 kts | 50° |
| 2026-05-05 13:49 | 49.55897 | 62.13947 | 32934 ft | 486 kts | 50° |
| 2026-05-05 13:49 | 49.60148 | 62.22061 | 32934 ft | 485 kts | 50° |
| 2026-05-05 13:50 | 49.64382 | 62.30180 | 32941 ft | 486 kts | 50° |
| 2026-05-05 13:50 | 49.68583 | 62.38268 | 32942 ft | 486 kts | 50° |
| 2026-05-05 13:51 | 49.72788 | 62.46377 | 32946 ft | 486 kts | 50° |
| 2026-05-05 13:51 | 49.77293 | 62.54107 | 32952 ft | 483 kts | 40° |
| 2026-05-05 13:52 | 49.82274 | 62.61109 | 32952 ft | 483 kts | 40° |
| 2026-05-05 13:52 | 49.87240 | 62.68140 | 32953 ft | 483 kts | 40° |
| 2026-05-05 13:53 | 49.92195 | 62.75182 | 32955 ft | 483 kts | 41° |
| 2026-05-05 13:53 | 49.97152 | 62.82231 | 32961 ft | 483 kts | 41° |
| 2026-05-05 13:54 | 50.02096 | 62.89311 | 32959 ft | 483 kts | 41° |
| 2026-05-05 13:54 | 50.06719 | 62.96907 | 32966 ft | 485 kts | 51° |
| 2026-05-05 13:55 | 50.10859 | 63.05115 | 32959 ft | 485 kts | 51° |
| 2026-05-05 13:55 | 50.15017 | 63.13389 | 32961 ft | 485 kts | 51° |
| 2026-05-05 13:56 | 50.19179 | 63.21683 | 32958 ft | 485 kts | 51° |
| 2026-05-05 13:56 | 50.23334 | 63.29997 | 32963 ft | 486 kts | 51° |
| 2026-05-05 13:57 | 50.27477 | 63.38324 | 32961 ft | 486 kts | 51° |
| 2026-05-05 13:57 | 50.31634 | 63.46661 | 32963 ft | 486 kts | 51° |
| 2026-05-05 13:58 | 50.35775 | 63.55031 | 32963 ft | 486 kts | 52° |
| 2026-05-05 13:58 | 50.39900 | 63.63422 | 32962 ft | 486 kts | 52° |
| 2026-05-05 13:59 | 50.46108 | 63.76023 | 32966 ft | 487 kts | 52° |
| 2026-05-05 14:00 | 50.52295 | 63.88677 | 32966 ft | 487 kts | 52° |
| 2026-05-05 14:00 | 50.56417 | 63.97138 | 32969 ft | 487 kts | 52° |
| 2026-05-05 14:01 | 50.60516 | 64.05550 | 32970 ft | 488 kts | 52° |
| 2026-05-05 14:01 | 50.64628 | 64.14039 | 32967 ft | 488 kts | 52° |
| 2026-05-05 14:02 | 50.68734 | 64.22566 | 32968 ft | 488 kts | 52° |
| 2026-05-05 14:02 | 50.72856 | 64.31103 | 32969 ft | 488 kts | 52° |
| 2026-05-05 14:03 | 50.76968 | 64.39660 | 32966 ft | 489 kts | 52° |
| 2026-05-05 14:03 | 50.81055 | 64.48241 | 32960 ft | 489 kts | 53° |
| 2026-05-05 14:04 | 50.85146 | 64.56847 | 32959 ft | 489 kts | 53° |
| 2026-05-05 14:04 | 50.89244 | 64.65480 | 32964 ft | 490 kts | 53° |
| 2026-05-05 14:05 | 50.93348 | 64.74117 | 32960 ft | 490 kts | 53° |
| 2026-05-05 14:05 | 50.97418 | 64.82710 | 32960 ft | 491 kts | 53° |
| 2026-05-05 14:06 | 51.01518 | 64.91451 | 32964 ft | 491 kts | 53° |
| 2026-05-05 14:06 | 51.05563 | 65.00100 | 32971 ft | 491 kts | 53° |
| 2026-05-05 14:07 | 51.09632 | 65.08820 | 32973 ft | 491 kts | 53° |
| 2026-05-05 14:07 | 51.13697 | 65.17546 | 32973 ft | 491 kts | 53° |
| 2026-05-05 14:08 | 51.17758 | 65.26290 | 32973 ft | 491 kts | 53° |
| 2026-05-05 14:08 | 51.21814 | 65.35059 | 32973 ft | 491 kts | 53° |
| 2026-05-05 14:09 | 51.25857 | 65.43842 | 32971 ft | 491 kts | 53° |
| 2026-05-05 14:09 | 51.29902 | 65.52647 | 32974 ft | 491 kts | 53° |
| 2026-05-05 14:10 | 51.33923 | 65.61468 | 32978 ft | 492 kts | 53° |
| 2026-05-05 14:10 | 51.37962 | 65.70317 | 32979 ft | 491 kts | 54° |
| 2026-05-05 14:11 | 51.41989 | 65.79177 | 32984 ft | 491 kts | 54° |
| 2026-05-05 14:11 | 51.45981 | 65.88000 | 32983 ft | 491 kts | 54° |
| 2026-05-05 14:12 | 51.49985 | 65.96872 | 32987 ft | 491 kts | 54° |
| 2026-05-05 14:12 | 51.53994 | 66.05748 | 32986 ft | 491 kts | 54° |
| 2026-05-05 14:13 | 51.57992 | 66.14643 | 32984 ft | 491 kts | 54° |
| 2026-05-05 14:13 | 51.61972 | 66.23561 | 32984 ft | 491 kts | 54° |
| 2026-05-05 14:14 | 51.65936 | 66.32503 | 32982 ft | 491 kts | 54° |
| 2026-05-05 14:14 | 51.69900 | 66.41460 | 32983 ft | 491 kts | 54° |
| 2026-05-05 14:15 | 51.73867 | 66.50411 | 32979 ft | 491 kts | 54° |
| 2026-05-05 14:15 | 51.77827 | 66.59378 | 32977 ft | 491 kts | 54° |
| 2026-05-05 14:16 | 51.81780 | 66.68381 | 32981 ft | 491 kts | 54° |
| 2026-05-05 14:16 | 51.85705 | 66.77359 | 32980 ft | 491 kts | 54° |
| 2026-05-05 14:17 | 51.89616 | 66.86341 | 32978 ft | 491 kts | 55° |
| 2026-05-05 14:17 | 51.93547 | 66.95388 | 32980 ft | 491 kts | 55° |
| 2026-05-05 14:18 | 51.97478 | 67.04440 | 32979 ft | 491 kts | 54° |
| 2026-05-05 14:18 | 52.01403 | 67.13509 | 32985 ft | 491 kts | 55° |
| 2026-05-05 14:19 | 52.05305 | 67.22617 | 32979 ft | 491 kts | 55° |
| 2026-05-05 14:19 | 52.09205 | 67.31746 | 32977 ft | 491 kts | 55° |
| 2026-05-05 14:20 | 52.13111 | 67.40885 | 32977 ft | 492 kts | 55° |
| 2026-05-05 14:20 | 52.17007 | 67.50036 | 32977 ft | 492 kts | 55° |
| 2026-05-05 14:21 | 52.20901 | 67.59201 | 32980 ft | 492 kts | 54° |
| 2026-05-05 14:21 | 52.24907 | 67.68255 | 32972 ft | 492 kts | 53° |
| 2026-05-05 14:22 | 52.28924 | 67.77230 | 32972 ft | 492 kts | 53° |
| 2026-05-05 14:22 | 52.32942 | 67.86287 | 32975 ft | 492 kts | 54° |
| 2026-05-05 14:23 | 52.36944 | 67.95394 | 32973 ft | 493 kts | 54° |
| 2026-05-05 14:23 | 52.40928 | 68.04529 | 32970 ft | 493 kts | 54° |
| 2026-05-05 14:24 | 52.44913 | 68.13682 | 32971 ft | 493 kts | 54° |
| 2026-05-05 14:24 | 52.48908 | 68.22847 | 32974 ft | 493 kts | 54° |
| 2026-05-05 14:25 | 52.52888 | 68.32055 | 32968 ft | 494 kts | 54° |
| 2026-05-05 14:25 | 52.56850 | 68.41263 | 32973 ft | 494 kts | 54° |
| 2026-05-05 14:26 | 52.60820 | 68.50496 | 32975 ft | 494 kts | 54° |
| 2026-05-05 14:26 | 52.64775 | 68.59746 | 32974 ft | 494 kts | 54° |
| 2026-05-05 14:27 | 52.68724 | 68.69001 | 32972 ft | 494 kts | 54° |
| 2026-05-05 14:27 | 52.72669 | 68.78286 | 32978 ft | 494 kts | 54° |
| 2026-05-05 14:28 | 52.76606 | 68.87566 | 32974 ft | 494 kts | 54° |
| 2026-05-05 14:28 | 52.79878 | 68.95297 | 32971 ft | 494 kts | 54° |
| 2026-05-05 14:29 | 52.84442 | 69.06143 | 32967 ft | 494 kts | 54° |
| 2026-05-05 14:29 | 52.88353 | 69.15495 | 32965 ft | 494 kts | 54° |
| 2026-05-05 14:30 | 52.91600 | 69.23277 | 32968 ft | 493 kts | 54° |
| 2026-05-05 14:30 | 52.95498 | 69.32655 | 32964 ft | 493 kts | 54° |
| 2026-05-05 14:31 | 52.99388 | 69.42040 | 32959 ft | 493 kts | 54° |
| 2026-05-05 14:31 | 53.03274 | 69.51445 | 32951 ft | 493 kts | 54° |
| 2026-05-05 14:32 | 53.07122 | 69.60791 | 32950 ft | 493 kts | 55° |
| 2026-05-05 14:32 | 53.10991 | 69.70222 | 32943 ft | 493 kts | 55° |
| 2026-05-05 14:33 | 53.14846 | 69.79669 | 32937 ft | 493 kts | 55° |
| 2026-05-05 14:33 | 53.18693 | 69.89125 | 32937 ft | 493 kts | 55° |
| 2026-05-05 14:34 | 53.22543 | 69.98621 | 32941 ft | 493 kts | 55° |
| 2026-05-05 14:34 | 53.26354 | 70.08051 | 32938 ft | 493 kts | 55° |
| 2026-05-05 14:35 | 53.30180 | 70.17558 | 32938 ft | 493 kts | 55° |
| 2026-05-05 14:35 | 53.34004 | 70.27090 | 32936 ft | 493 kts | 55° |
| 2026-05-05 14:36 | 53.37813 | 70.36637 | 32934 ft | 493 kts | 56° |
| 2026-05-05 14:36 | 53.41606 | 70.46186 | 32929 ft | 493 kts | 56° |
| 2026-05-05 14:37 | 53.45402 | 70.55758 | 32924 ft | 493 kts | 56° |
| 2026-05-05 14:37 | 53.49187 | 70.65358 | 32924 ft | 493 kts | 56° |
| 2026-05-05 14:38 | 53.52950 | 70.74922 | 32918 ft | 493 kts | 56° |
| 2026-05-05 14:38 | 53.56732 | 70.84550 | 32914 ft | 493 kts | 56° |
| 2026-05-05 14:39 | 53.60506 | 70.94213 | 32911 ft | 493 kts | 56° |
| 2026-05-05 14:39 | 53.64264 | 71.03886 | 32910 ft | 494 kts | 56° |
| 2026-05-05 14:40 | 53.68018 | 71.13584 | 32897 ft | 494 kts | 56° |
| 2026-05-05 14:40 | 53.71763 | 71.23319 | 32896 ft | 494 kts | 56° |
| 2026-05-05 14:41 | 53.75502 | 71.33052 | 32902 ft | 494 kts | 56° |
| 2026-05-05 14:41 | 53.79245 | 71.42801 | 32894 ft | 494 kts | 56° |
| 2026-05-05 14:42 | 53.82977 | 71.52581 | 32892 ft | 494 kts | 56° |
| 2026-05-05 14:42 | 53.86695 | 71.62386 | 32888 ft | 495 kts | 56° |
| 2026-05-05 14:43 | 53.90385 | 71.72149 | 32891 ft | 495 kts | 57° |
| 2026-05-05 14:43 | 53.94090 | 71.81982 | 32886 ft | 495 kts | 57° |
| 2026-05-05 14:44 | 53.97797 | 71.91842 | 32883 ft | 495 kts | 57° |
| 2026-05-05 14:44 | 54.01501 | 72.01729 | 32891 ft | 495 kts | 57° |
| 2026-05-05 14:45 | 54.05194 | 72.11642 | 32885 ft | 495 kts | 57° |
| 2026-05-05 14:45 | 54.08840 | 72.21500 | 32892 ft | 496 kts | 57° |
| 2026-05-05 14:46 | 54.12508 | 72.31448 | 32891 ft | 496 kts | 57° |
| 2026-05-05 14:46 | 54.15886 | 72.41680 | 32883 ft | 496 kts | 68° |
| 2026-05-05 14:47 | 54.17962 | 72.52892 | 32884 ft | 495 kts | 75° |
| 2026-05-05 14:47 | 54.19877 | 72.64188 | 32880 ft | 496 kts | 75° |
| 2026-05-05 14:48 | 54.21793 | 72.75501 | 32883 ft | 496 kts | 75° |
| 2026-05-05 14:48 | 54.23690 | 72.86820 | 32870 ft | 495 kts | 75° |
| 2026-05-05 14:49 | 54.25582 | 72.98156 | 32878 ft | 495 kts | 75° |
| 2026-05-05 14:49 | 54.27464 | 73.09480 | 32882 ft | 495 kts | 75° |
| 2026-05-05 14:50 | 54.29335 | 73.20816 | 32874 ft | 495 kts | 75° |
| 2026-05-05 14:50 | 54.31190 | 73.32171 | 32867 ft | 495 kts | 75° |
| 2026-05-05 14:51 | 54.33028 | 73.43536 | 32869 ft | 495 kts | 75° |
| 2026-05-05 14:51 | 54.34864 | 73.54913 | 32862 ft | 495 kts | 75° |
| 2026-05-05 14:52 | 54.36691 | 73.66302 | 32863 ft | 495 kts | 75° |
| 2026-05-05 14:52 | 54.38500 | 73.77689 | 32865 ft | 495 kts | 75° |
| 2026-05-05 14:53 | 54.40296 | 73.89093 | 32856 ft | 495 kts | 75° |
| 2026-05-05 14:53 | 54.42078 | 74.00438 | 32859 ft | 495 kts | 75° |
| 2026-05-05 14:54 | 54.43860 | 74.11851 | 32851 ft | 495 kts | 75° |
| 2026-05-05 14:54 | 54.45633 | 74.23285 | 32851 ft | 495 kts | 75° |
| 2026-05-05 14:55 | 54.47393 | 74.34712 | 32855 ft | 495 kts | 75° |
| 2026-05-05 14:55 | 54.49143 | 74.46166 | 32835 ft | 495 kts | 75° |
| 2026-05-05 14:56 | 54.50881 | 74.57614 | 32834 ft | 495 kts | 75° |
| 2026-05-05 14:56 | 54.52608 | 74.69074 | 32833 ft | 494 kts | 76° |
| 2026-05-05 14:57 | 54.54325 | 74.80543 | 32830 ft | 494 kts | 76° |
| 2026-05-05 14:57 | 54.56022 | 74.92007 | 32831 ft | 494 kts | 76° |
| 2026-05-05 14:58 | 54.57709 | 75.03481 | 32833 ft | 494 kts | 76° |
| 2026-05-05 14:58 | 54.59388 | 75.14966 | 32823 ft | 494 kts | 76° |
| 2026-05-05 14:59 | 54.61048 | 75.26382 | 32832 ft | 494 kts | 76° |
| 2026-05-05 14:59 | 54.62711 | 75.37912 | 32840 ft | 495 kts | 76° |
| 2026-05-05 15:00 | 54.64082 | 75.47494 | 32840 ft | 495 kts | 76° |
| 2026-05-05 15:00 | 54.65991 | 75.60988 | 32839 ft | 495 kts | 76° |
| 2026-05-05 15:01 | 54.67620 | 75.72532 | 32852 ft | 495 kts | 76° |
| 2026-05-05 15:01 | 54.69241 | 75.84101 | 32843 ft | 495 kts | 76° |
| 2026-05-05 15:02 | 54.70849 | 75.95672 | 32837 ft | 495 kts | 76° |
| 2026-05-05 15:02 | 54.72436 | 76.07180 | 32848 ft | 496 kts | 76° |
| 2026-05-05 15:03 | 54.74035 | 76.18803 | 32849 ft | 496 kts | 76° |
| 2026-05-05 15:03 | 54.75621 | 76.30426 | 32851 ft | 497 kts | 76° |
| 2026-05-05 15:04 | 54.77185 | 76.42088 | 32854 ft | 497 kts | 76° |
| 2026-05-05 15:04 | 54.78748 | 76.53770 | 32869 ft | 498 kts | 76° |
| 2026-05-05 15:05 | 54.81071 | 76.71314 | 32868 ft | 498 kts | 76° |
| 2026-05-05 15:06 | 54.82602 | 76.83035 | 32881 ft | 498 kts | 76° |
| 2026-05-05 15:06 | 54.84120 | 76.94773 | 32888 ft | 499 kts | 76° |
| 2026-05-05 15:07 | 54.85647 | 77.06521 | 32891 ft | 499 kts | 76° |
| 2026-05-05 15:07 | 54.87145 | 77.18186 | 32889 ft | 499 kts | 77° |
| 2026-05-05 15:08 | 54.88633 | 77.29957 | 32888 ft | 499 kts | 77° |
| 2026-05-05 15:08 | 54.90110 | 77.41739 | 32897 ft | 499 kts | 77° |
| 2026-05-05 15:09 | 54.91587 | 77.53526 | 32899 ft | 499 kts | 77° |
| 2026-05-05 15:09 | 54.92923 | 77.65382 | 32902 ft | 500 kts | 83° |
| 2026-05-05 15:10 | 54.93753 | 77.77386 | 32904 ft | 500 kts | 83° |
| 2026-05-05 15:10 | 54.94581 | 77.89403 | 32900 ft | 500 kts | 82° |
| 2026-05-05 15:11 | 54.95404 | 78.01438 | 32910 ft | 501 kts | 83° |
| 2026-05-05 15:11 | 54.96211 | 78.13479 | 32909 ft | 501 kts | 83° |
| 2026-05-05 15:12 | 54.97005 | 78.25520 | 32909 ft | 501 kts | 83° |
| 2026-05-05 15:12 | 54.97786 | 78.37565 | 32911 ft | 501 kts | 83° |
| 2026-05-05 15:13 | 54.98558 | 78.49607 | 32917 ft | 501 kts | 83° |
| 2026-05-05 15:13 | 54.99314 | 78.61666 | 32920 ft | 501 kts | 83° |